createdAt,value
2022-11-01T00:00:40.313Z,79.50
2022-11-01T00:03:10.209Z,80.06
2022-11-01T00:05:40.020Z,80.25
2022-11-01T00:08:09.763Z,80.15
2022-11-01T00:10:39.542Z,79.80
2022-11-01T00:13:09.468Z,79.58
2022-11-01T00:15:39.428Z,79.43
2022-11-01T00:18:09.439Z,79.34
2022-11-01T00:20:39.679Z,79.13
2022-11-01T00:23:09.447Z,79.11
2022-11-01T00:25:39.719Z,79.13
2022-11-01T00:28:09.461Z,79.18
2022-11-01T00:30:39.429Z,79.38
2022-11-01T00:33:09.322Z,79.75
2022-11-01T00:35:39.444Z,80.01
2022-11-01T00:38:09.301Z,80.03
2022-11-01T00:40:39.381Z,79.95
2022-11-01T00:43:09.239Z,79.68
2022-11-01T00:45:39.026Z,79.61
2022-11-01T00:48:09.171Z,79.57
2022-11-01T00:50:39.016Z,79.52
2022-11-01T00:53:08.813Z,79.68
2022-11-01T00:55:38.880Z,79.99
2022-11-01T00:58:08.673Z,80.30
2022-11-01T01:00:38.377Z,80.65
2022-11-01T01:03:08.419Z,81.29
2022-11-01T01:05:41.215Z,81.68
2022-11-01T01:08:11.424Z,81.90
2022-11-01T01:10:41.130Z,81.90
2022-11-01T01:13:11.026Z,82.06
2022-11-01T01:15:40.971Z,82.32
2022-11-01T01:18:10.861Z,82.40
2022-11-01T01:20:40.816Z,82.65
2022-11-01T01:23:10.743Z,82.85
2022-11-01T01:25:41.935Z,82.98
2022-11-01T01:28:11.816Z,83.25
2022-11-01T01:30:42.461Z,83.23
2022-11-01T01:35:42.168Z,82.88
2022-11-01T01:38:12.128Z,82.40
2022-11-01T01:40:42.018Z,81.91
2022-11-01T01:43:12.543Z,81.43
2022-11-01T01:45:42.503Z,80.99
2022-11-01T01:48:14.020Z,80.81
2022-11-01T01:50:45.283Z,80.69
2022-11-01T01:53:16.204Z,80.63
2022-11-01T01:55:47.241Z,80.36
2022-11-01T01:58:17.268Z,80.04
2022-11-01T02:00:47.097Z,79.68
2022-11-01T02:03:16.959Z,79.26
2022-11-01T02:05:48.386Z,78.87
2022-11-01T02:08:26.974Z,78.61
2022-11-01T02:10:57.391Z,78.73
2022-11-01T02:13:27.042Z,78.87
2022-11-01T02:16:16.539Z,78.83
2022-11-01T02:18:47.336Z,78.52
2022-11-01T02:21:22.787Z,78.25
2022-11-01T02:24:08.971Z,78.09
2022-11-01T02:26:43.770Z,77.81
2022-11-01T02:29:15.739Z,77.66
2022-11-01T02:31:59.360Z,77.67
2022-11-01T02:34:30.056Z,77.71
2022-11-01T02:37:00.917Z,77.87
2022-11-01T02:39:31.141Z,77.99
2022-11-01T02:42:03.235Z,78.27
2022-11-01T02:44:33.236Z,78.81
2022-11-01T02:47:02.945Z,79.36
2022-11-01T02:49:35.362Z,79.52
2022-11-01T02:52:05.332Z,79.44
2022-11-01T02:54:35.330Z,79.27
2022-11-01T02:57:07.184Z,79.10
2022-11-01T02:59:44.780Z,79.04
2022-11-01T03:02:22.516Z,79.00
2022-11-01T03:04:52.453Z,79.00
2022-11-01T03:07:22.122Z,79.03
2022-11-01T03:09:52.016Z,79.17
2022-11-01T03:12:21.898Z,79.41
2022-11-01T03:14:53.873Z,79.87
2022-11-01T03:17:24.566Z,80.06
2022-11-01T03:19:54.988Z,80.26
2022-11-01T03:22:25.835Z,80.17
2022-11-01T03:24:56.352Z,79.92
2022-11-01T03:27:27.551Z,79.77
2022-11-01T03:29:58.792Z,79.60
2022-11-01T03:32:29.367Z,79.53
2022-11-01T03:34:59.135Z,79.61
2022-11-01T03:37:29.398Z,79.63
2022-11-01T03:39:59.473Z,79.81
2022-11-01T03:42:29.156Z,80.06
2022-11-01T03:44:59.798Z,80.34
2022-11-01T03:47:29.703Z,80.67
2022-11-01T03:50:18.423Z,81.16
2022-11-01T03:52:48.076Z,81.40
2022-11-01T03:55:20.842Z,81.40
2022-11-01T03:57:50.630Z,81.31
2022-11-01T04:00:21.375Z,81.15
2022-11-01T04:02:51.099Z,81.08
2022-11-01T04:05:20.938Z,81.20
2022-11-01T04:07:51.742Z,81.36
2022-11-01T04:10:21.524Z,81.58
2022-11-01T04:12:51.447Z,81.90
2022-11-01T04:15:38.977Z,82.23
2022-11-01T04:18:30.627Z,82.89
2022-11-01T04:21:00.779Z,83.36
2022-11-01T04:23:30.915Z,83.61
2022-11-01T04:26:01.018Z,83.64
2022-11-01T04:28:30.974Z,83.62
2022-11-01T04:31:00.987Z,83.49
2022-11-01T04:33:31.158Z,83.51
2022-11-01T04:36:01.510Z,83.30
2022-11-01T04:38:31.416Z,83.21
2022-11-01T04:41:01.147Z,83.14
2022-11-01T04:43:31.097Z,83.25
2022-11-01T04:46:01.248Z,83.20
2022-11-01T04:48:30.927Z,83.07
2022-11-01T04:51:03.767Z,82.80
2022-11-01T04:53:33.450Z,82.63
2022-11-01T04:56:04.353Z,82.48
2022-11-01T04:58:41.475Z,82.38
2022-11-01T05:01:15.386Z,82.28
2022-11-01T05:03:45.375Z,82.33
2022-11-01T05:06:15.359Z,82.48
2022-11-01T05:08:45.346Z,82.61
2022-11-01T05:11:16.108Z,82.55
2022-11-01T05:13:46.418Z,82.25
2022-11-01T05:16:20.646Z,81.79
2022-11-01T05:18:51.063Z,81.43
2022-11-01T05:21:20.921Z,81.09
2022-11-01T05:23:50.814Z,80.74
2022-11-01T05:26:20.563Z,80.35
2022-11-01T05:28:50.932Z,80.16
2022-11-01T05:31:20.768Z,80.03
2022-11-01T05:33:50.723Z,79.96
2022-11-01T05:36:20.491Z,79.92
2022-11-01T05:38:50.440Z,79.66
2022-11-01T05:41:20.238Z,79.13
2022-11-01T05:43:49.992Z,78.63
2022-11-01T05:46:20.175Z,77.91
2022-11-01T05:48:50.174Z,77.46
2022-11-01T05:51:20.276Z,77.04
2022-11-01T05:53:50.984Z,76.67
2022-11-01T05:56:21.206Z,76.31
2022-11-01T05:58:51.323Z,75.88
2022-11-01T06:01:21.618Z,75.38
2022-11-01T06:03:52.073Z,75.07
2022-11-01T06:06:22.094Z,74.80
2022-11-01T06:08:52.044Z,74.48
2022-11-01T06:11:21.948Z,74.13
2022-11-01T06:13:56.391Z,73.52
2022-11-01T06:16:26.521Z,72.90
2022-11-01T06:18:56.640Z,72.60
2022-11-01T06:21:30.060Z,72.40
2022-11-01T06:24:00.109Z,72.09
2022-11-01T06:26:29.944Z,72.11
2022-11-01T06:28:59.921Z,72.19
2022-11-01T06:31:29.873Z,72.38
2022-11-01T06:33:59.607Z,72.64
2022-11-01T06:36:29.409Z,72.52
2022-11-01T06:38:59.444Z,71.98
2022-11-01T06:41:29.318Z,71.59
2022-11-01T06:43:59.030Z,71.40
2022-11-01T06:46:29.288Z,70.94
2022-11-01T06:48:59.275Z,70.74
2022-11-01T06:51:31.320Z,70.25
2022-11-01T06:54:03.585Z,68.83
2022-11-01T06:56:33.325Z,67.62
2022-11-01T06:59:03.204Z,66.69
2022-11-01T07:01:33.275Z,66.44
2022-11-01T07:04:03.251Z,65.14
2022-11-01T07:06:33.671Z,64.79
2022-11-01T07:09:03.581Z,64.07
2022-11-01T07:11:33.944Z,62.95
2022-11-01T07:14:03.902Z,62.12
2022-11-01T07:16:34.192Z,60.42
2022-11-01T07:19:04.210Z,59.94
2022-11-01T07:21:34.765Z,59.61
2022-11-01T07:24:04.813Z,58.47
2022-11-01T07:26:34.720Z,58.45
2022-11-01T07:29:04.887Z,57.75
2022-11-01T07:31:35.412Z,57.61
2022-11-01T07:34:05.911Z,57.84
2022-11-01T07:36:35.841Z,57.87
2022-11-01T07:39:05.865Z,56.67
2022-11-01T07:41:35.986Z,55.71
2022-11-01T07:44:05.883Z,55.81
2022-11-01T07:46:35.755Z,55.39
2022-11-01T07:49:05.586Z,55.23
2022-11-01T07:51:35.313Z,55.08
2022-11-01T07:54:05.136Z,54.27
2022-11-01T07:56:35.130Z,53.92
2022-11-01T07:59:05.028Z,54.07
2022-11-01T08:01:34.804Z,53.87
2022-11-01T08:04:04.740Z,53.81
2022-11-01T08:06:34.622Z,53.56
2022-11-01T08:09:04.296Z,53.38
2022-11-01T08:11:34.106Z,52.95
2022-11-01T08:14:06.119Z,52.06
2022-11-01T08:16:36.153Z,51.53
2022-11-01T08:19:05.952Z,50.49
2022-11-01T08:21:35.932Z,49.17
2022-11-01T08:24:05.812Z,48.29
2022-11-01T08:26:35.523Z,48.87
2022-11-01T08:29:05.275Z,48.92
2022-11-01T08:31:35.034Z,47.95
2022-11-01T08:34:04.890Z,47.05
2022-11-01T08:36:35.095Z,46.58
2022-11-01T08:39:05.012Z,46.97
2022-11-01T08:41:37.250Z,47.28
2022-11-01T08:44:07.542Z,47.24
2022-11-01T08:46:37.307Z,47.29
2022-11-01T08:49:07.209Z,46.80
2022-11-01T08:51:37.145Z,46.44
2022-11-01T08:54:07.986Z,45.33
2022-11-01T08:56:37.765Z,45.51
2022-11-01T08:59:08.292Z,46.04
2022-11-01T09:01:38.959Z,45.78
2022-11-01T09:04:09.519Z,45.74
2022-11-01T09:06:39.638Z,46.28
2022-11-01T09:09:10.527Z,46.35
2022-11-01T09:11:40.321Z,45.79
2022-11-01T09:14:10.429Z,45.38
2022-11-01T09:16:40.225Z,45.24
2022-11-01T09:19:10.009Z,44.81
2022-11-01T09:21:39.784Z,45.13
2022-11-01T09:24:10.167Z,44.59
2022-11-01T09:26:39.930Z,44.86
2022-11-01T09:29:09.916Z,44.94
2022-11-01T09:31:39.614Z,44.65
2022-11-01T09:34:12.221Z,43.99
2022-11-01T09:36:42.038Z,43.09
2022-11-01T09:39:13.335Z,42.54
2022-11-01T09:41:47.488Z,42.59
2022-11-01T09:44:17.788Z,42.47
2022-11-01T09:46:48.938Z,42.86
2022-11-01T09:49:20.160Z,42.96
2022-11-01T09:51:50.294Z,42.80
2022-11-01T09:54:20.667Z,43.00
2022-11-01T09:56:52.496Z,41.64
2022-11-01T09:59:24.639Z,41.68
2022-11-01T10:01:57.879Z,41.48
2022-11-01T10:04:34.460Z,41.49
2022-11-01T10:07:06.426Z,41.01
2022-11-01T10:09:39.916Z,41.18
2022-11-01T10:12:16.158Z,41.46
2022-11-01T10:14:56.170Z,41.01
2022-11-01T10:17:27.448Z,41.09
2022-11-01T10:19:57.345Z,41.06
2022-11-01T10:22:29.278Z,41.10
2022-11-01T10:24:59.485Z,41.08
2022-11-01T10:27:34.568Z,41.24
2022-11-01T10:30:12.247Z,39.68
2022-11-01T10:32:43.337Z,39.38
2022-11-01T10:35:15.798Z,38.82
2022-11-01T10:37:57.411Z,39.05
2022-11-01T10:40:37.185Z,39.28
2022-11-01T10:43:10.047Z,39.22
2022-11-01T10:45:43.563Z,39.09
2022-11-01T10:48:18.409Z,38.86
2022-11-01T10:50:48.208Z,38.79
2022-11-01T10:53:18.154Z,38.21
2022-11-01T10:55:48.961Z,37.69
2022-11-01T10:58:20.574Z,37.57
2022-11-01T11:00:50.443Z,37.70
2022-11-01T11:03:21.121Z,38.13
2022-11-01T11:05:51.465Z,37.47
2022-11-01T11:08:22.836Z,36.92
2022-11-01T11:10:52.725Z,36.74
2022-11-01T11:13:23.599Z,36.77
2022-11-01T11:15:54.901Z,36.90
2022-11-01T11:18:26.569Z,36.95
2022-11-01T11:20:57.682Z,36.93
2022-11-01T11:23:27.437Z,36.49
2022-11-01T11:25:57.501Z,36.35
2022-11-01T11:28:30.940Z,36.30
2022-11-01T11:31:00.809Z,36.35
2022-11-01T11:33:30.684Z,35.85
2022-11-01T11:36:00.363Z,35.10
2022-11-01T11:38:43.206Z,34.75
2022-11-01T11:41:14.097Z,34.69
2022-11-01T11:43:43.993Z,34.43
2022-11-01T11:46:21.361Z,34.11
2022-11-01T11:48:52.637Z,33.52
2022-11-01T11:51:22.626Z,33.87
2022-11-01T11:54:05.978Z,34.01
2022-11-01T11:56:35.946Z,33.64
2022-11-01T11:59:08.673Z,33.52
2022-11-01T12:01:39.306Z,33.76
2022-11-01T12:04:09.635Z,33.59
2022-11-01T12:06:41.342Z,33.51
2022-11-01T12:09:11.131Z,33.31
2022-11-01T12:11:41.927Z,33.46
2022-11-01T12:14:20.353Z,33.47
2022-11-01T12:16:50.345Z,33.19
2022-11-01T12:19:27.918Z,32.69
2022-11-01T12:21:57.885Z,32.63
2022-11-01T12:24:28.112Z,32.43
2022-11-01T12:26:59.511Z,32.17
2022-11-01T12:29:30.430Z,32.05
2022-11-01T12:32:02.137Z,32.35
2022-11-01T12:34:32.549Z,31.99
2022-11-01T12:37:03.881Z,32.01
2022-11-01T12:39:35.816Z,32.33
2022-11-01T12:42:06.370Z,31.73
2022-11-01T12:44:37.177Z,31.32
2022-11-01T12:47:08.316Z,31.32
2022-11-01T12:49:40.515Z,31.51
2022-11-01T12:52:13.127Z,31.66
2022-11-01T12:54:43.920Z,31.73
2022-11-01T12:57:18.398Z,31.74
2022-11-01T12:59:48.425Z,31.47
2022-11-01T13:02:30.987Z,31.49
2022-11-01T13:05:01.585Z,31.58
2022-11-01T13:07:33.877Z,31.76
2022-11-01T13:10:05.701Z,31.98
2022-11-01T13:12:38.549Z,32.22
2022-11-01T13:15:11.657Z,32.51
2022-11-01T13:17:44.234Z,32.54
2022-11-01T13:20:23.318Z,32.17
2022-11-01T13:22:54.285Z,32.20
2022-11-01T13:25:25.477Z,32.40
2022-11-01T13:27:57.575Z,32.68
2022-11-01T13:30:28.092Z,32.78
2022-11-01T13:32:59.754Z,33.06
2022-11-01T13:35:37.114Z,33.29
2022-11-01T13:38:09.742Z,33.20
2022-11-01T13:40:42.477Z,33.33
2022-11-01T13:43:12.767Z,33.29
2022-11-01T13:46:11.346Z,33.30
2022-11-01T13:48:44.843Z,33.58
2022-11-01T13:51:17.260Z,33.73
2022-11-01T13:53:47.997Z,33.76
2022-11-01T13:56:20.528Z,33.75
2022-11-01T13:58:50.311Z,33.81
2022-11-01T14:01:36.792Z,34.00
2022-11-01T14:04:19.541Z,34.15
2022-11-01T14:06:52.929Z,34.35
2022-11-01T14:09:31.314Z,34.53
2022-11-01T14:12:11.637Z,34.81
2022-11-01T14:14:52.150Z,35.06
2022-11-01T14:17:47.663Z,35.27
2022-11-01T14:20:34.823Z,35.67
2022-11-01T14:23:31.916Z,36.00
2022-11-01T14:26:15.267Z,36.35
2022-11-01T14:28:44.999Z,36.85
2022-11-01T14:31:16.206Z,37.11
2022-11-01T14:33:48.589Z,37.52
2022-11-01T14:36:19.790Z,37.67
2022-11-01T14:38:50.433Z,37.96
2022-11-01T14:41:20.611Z,38.17
2022-11-01T14:43:50.716Z,38.45
2022-11-01T14:46:21.688Z,38.63
2022-11-01T14:48:52.903Z,39.03
2022-11-01T14:51:23.307Z,39.42
2022-11-01T14:53:54.657Z,39.68
2022-11-01T14:56:27.961Z,39.89
2022-11-01T14:59:11.558Z,39.94
2022-11-01T15:01:47.113Z,40.04
2022-11-01T15:04:22.423Z,40.26
2022-11-01T15:06:52.798Z,40.43
2022-11-01T15:09:24.031Z,40.68
2022-11-01T15:11:54.553Z,40.89
2022-11-01T15:14:27.010Z,41.11
2022-11-01T15:16:56.921Z,41.19
2022-11-01T15:19:28.771Z,41.33
2022-11-01T15:22:03.620Z,41.39
2022-11-01T15:24:34.300Z,41.47
2022-11-01T15:27:08.815Z,41.69
2022-11-01T15:29:38.713Z,41.92
2022-11-01T15:32:18.101Z,42.27
2022-11-01T15:34:52.273Z,42.38
2022-11-01T15:37:23.209Z,42.66
2022-11-01T15:39:52.872Z,42.73
2022-11-01T15:42:24.360Z,42.94
2022-11-01T15:44:54.320Z,43.00
2022-11-01T15:47:26.102Z,43.28
2022-11-01T15:49:59.364Z,43.43
2022-11-01T15:52:30.572Z,43.49
2022-11-01T15:55:02.979Z,43.53
2022-11-01T15:57:34.178Z,43.61
2022-11-01T16:00:06.834Z,43.70
2022-11-01T16:02:45.599Z,43.54
2022-11-01T16:05:17.617Z,43.61
2022-11-01T16:07:48.177Z,43.76
2022-11-01T16:10:20.797Z,43.84
2022-11-01T16:12:51.727Z,44.13
2022-11-01T16:15:23.753Z,44.43
2022-11-01T16:17:55.900Z,44.52
2022-11-01T16:20:30.586Z,44.61
2022-11-01T16:23:00.654Z,44.67
2022-11-01T16:25:30.881Z,44.77
2022-11-01T16:28:06.791Z,44.97
2022-11-01T16:30:42.849Z,45.01
2022-11-01T16:33:22.134Z,45.14
2022-11-01T16:35:52.469Z,45.20
2022-11-01T16:38:39.198Z,45.33
2022-11-01T16:41:15.371Z,45.47
2022-11-01T16:43:45.840Z,45.53
2022-11-01T16:46:15.784Z,45.58
2022-11-01T16:48:53.315Z,45.55
2022-11-01T16:51:27.087Z,45.58
2022-11-01T16:53:57.356Z,45.65
2022-11-01T16:56:36.492Z,45.65
2022-11-01T16:59:08.698Z,45.80
2022-11-01T17:01:38.504Z,45.86
2022-11-01T17:04:09.097Z,45.94
2022-11-01T17:06:39.478Z,45.94
2022-11-01T17:09:13.036Z,45.93
2022-11-01T17:11:47.798Z,46.01
2022-11-01T17:14:19.579Z,46.08
2022-11-01T17:16:49.534Z,46.25
2022-11-01T17:19:24.099Z,46.32
2022-11-01T17:21:54.032Z,46.41
2022-11-01T17:24:24.356Z,46.46
2022-11-01T17:26:54.546Z,46.57
2022-11-01T17:29:24.384Z,46.59
2022-11-01T17:31:54.148Z,46.58
2022-11-01T17:34:24.607Z,46.75
2022-11-01T17:36:54.443Z,46.94
2022-11-01T17:39:24.304Z,46.95
2022-11-01T17:41:54.182Z,47.03
2022-11-01T17:44:24.318Z,47.20
2022-11-01T17:46:54.046Z,47.28
2022-11-01T17:49:24.917Z,47.52
2022-11-01T17:51:55.286Z,47.63
2022-11-01T17:56:55.932Z,47.91
2022-11-01T17:59:25.816Z,48.06
2022-11-01T18:01:55.884Z,48.13
2022-11-01T18:04:26.160Z,48.20
2022-11-01T18:06:56.280Z,48.27
2022-11-01T18:09:26.231Z,48.51
2022-11-01T18:12:00.144Z,48.56
2022-11-01T18:14:33.928Z,48.60
2022-11-01T18:17:05.088Z,48.66
2022-11-01T18:19:40.861Z,48.87
2022-11-01T18:22:14.097Z,48.97
2022-11-01T18:24:44.584Z,49.01
2022-11-01T18:27:14.616Z,49.11
2022-11-01T18:29:44.706Z,49.15
2022-11-01T18:32:15.515Z,49.19
2022-11-01T18:34:47.701Z,49.19
2022-11-01T18:37:21.991Z,49.15
2022-11-01T18:39:53.402Z,49.18
2022-11-01T18:42:25.929Z,49.25
2022-11-01T18:44:57.095Z,49.33
2022-11-01T18:47:27.644Z,49.47
2022-11-01T18:49:57.768Z,49.64
2022-11-01T18:52:28.424Z,49.72
2022-11-01T18:54:58.395Z,49.76
2022-11-01T18:57:30.314Z,49.90
2022-11-01T19:00:00.093Z,50.00
2022-11-01T19:02:31.421Z,50.05
2022-11-01T19:05:03.143Z,50.25
2022-11-01T19:07:57.075Z,50.23
2022-11-01T19:10:24.739Z,50.31
2022-11-01T19:12:55.227Z,50.30
2022-11-01T19:15:26.256Z,50.32
2022-11-01T19:17:57.933Z,50.34
2022-11-01T19:20:29.202Z,50.42
2022-11-01T19:22:59.729Z,50.47
2022-11-01T19:25:30.730Z,50.45
2022-11-01T19:28:01.052Z,50.52
2022-11-01T19:30:31.475Z,50.51
2022-11-01T19:33:03.540Z,50.54
2022-11-01T19:35:33.825Z,50.59
2022-11-01T19:38:04.528Z,50.67
2022-11-01T19:40:35.426Z,50.73
2022-11-01T19:43:10.877Z,50.76
2022-11-01T19:45:41.942Z,50.87
2022-11-01T19:48:12.819Z,50.90
2022-11-01T19:50:42.894Z,51.04
2022-11-01T19:53:23.760Z,51.03
2022-11-01T19:55:55.523Z,51.09
2022-11-01T19:58:29.914Z,51.08
2022-11-01T20:01:20.035Z,51.07
2022-11-01T20:03:50.085Z,51.08
2022-11-01T20:06:21.813Z,51.09
2022-11-01T20:08:52.995Z,51.12
2022-11-01T20:11:22.952Z,51.21
2022-11-01T20:13:52.951Z,51.18
2022-11-01T20:16:23.319Z,51.25
2022-11-01T20:18:53.160Z,51.28
2022-11-01T20:21:23.691Z,51.32
2022-11-01T20:23:54.650Z,51.35
2022-11-01T20:26:24.755Z,51.47
2022-11-01T20:28:54.781Z,51.65
2022-11-01T20:31:25.223Z,51.58
2022-11-01T20:33:55.415Z,51.69
2022-11-01T20:36:25.511Z,51.69
2022-11-01T20:38:55.532Z,51.81
2022-11-01T20:41:25.383Z,51.84
2022-11-01T20:43:55.588Z,51.99
2022-11-01T20:46:25.794Z,52.03
2022-11-01T20:48:55.911Z,52.12
2022-11-01T20:51:25.669Z,52.19
2022-11-01T20:53:57.285Z,52.18
2022-11-01T20:56:27.100Z,52.26
2022-11-01T20:58:56.873Z,52.21
2022-11-01T21:01:27.284Z,52.22
2022-11-01T21:03:57.781Z,52.20
2022-11-01T21:06:28.201Z,52.12
2022-11-01T21:08:58.097Z,52.26
2022-11-01T21:11:44.241Z,52.39
2022-11-01T21:14:17.931Z,52.55
2022-11-01T21:16:48.341Z,52.61
2022-11-01T21:19:20.978Z,52.67
2022-11-01T21:21:52.490Z,52.67
2022-11-01T21:24:32.677Z,52.75
2022-11-01T21:27:20.109Z,52.80
2022-11-01T21:29:50.123Z,52.76
2022-11-01T21:32:25.456Z,52.84
2022-11-01T21:34:55.242Z,52.88
2022-11-01T21:37:25.727Z,52.97
2022-11-01T21:40:01.672Z,53.10
2022-11-01T21:42:35.809Z,53.27
2022-11-01T21:45:11.444Z,53.33
2022-11-01T21:47:45.518Z,53.38
2022-11-01T21:50:16.188Z,53.48
2022-11-01T21:52:46.082Z,53.55
2022-11-01T21:55:16.105Z,53.64
2022-11-01T21:57:46.000Z,53.75
2022-11-01T22:00:16.816Z,53.76
2022-11-01T22:02:47.157Z,53.96
2022-11-01T22:05:17.173Z,53.98
2022-11-01T22:07:47.036Z,54.29
2022-11-01T22:10:16.899Z,54.32
2022-11-01T22:12:46.918Z,54.30
2022-11-01T22:15:16.687Z,54.38
2022-11-01T22:17:46.577Z,54.52
2022-11-01T22:20:16.462Z,54.41
2022-11-01T22:22:46.285Z,54.50
2022-11-01T22:25:16.224Z,54.54
2022-11-01T22:27:45.980Z,54.55
2022-11-01T22:30:15.844Z,54.61
2022-11-01T22:32:45.971Z,54.79
2022-11-01T22:35:15.927Z,54.95
2022-11-01T22:37:45.804Z,54.90
2022-11-01T22:40:17.819Z,54.97
2022-11-01T22:42:48.559Z,55.06
2022-11-01T22:45:18.793Z,55.01
2022-11-01T22:47:48.541Z,54.99
2022-11-01T22:50:19.999Z,55.44
2022-11-01T22:52:50.596Z,55.31
2022-11-01T22:55:24.897Z,55.19
2022-11-01T22:57:56.360Z,55.03
2022-11-01T23:00:30.373Z,55.02
2022-11-01T23:03:04.232Z,55.05
2022-11-01T23:05:34.477Z,54.97
2022-11-01T23:08:06.382Z,54.91
2022-11-01T23:10:36.276Z,54.92
2022-11-01T23:13:26.057Z,54.91
2022-11-01T23:15:56.276Z,54.97
2022-11-01T23:18:28.026Z,54.98
2022-11-01T23:20:58.032Z,55.05
2022-11-01T23:23:27.688Z,55.26
2022-11-01T23:25:57.678Z,55.23
2022-11-01T23:28:28.097Z,55.23
2022-11-01T23:30:58.194Z,55.29
2022-11-01T23:33:29.308Z,55.18
2022-11-01T23:35:59.647Z,55.23
2022-11-01T23:38:34.597Z,55.20
2022-11-01T23:41:04.375Z,55.04
2022-11-01T23:43:35.321Z,55.04
2022-11-01T23:46:05.340Z,54.95
2022-11-01T23:48:41.595Z,54.96
2022-11-01T23:51:16.792Z,54.79
2022-11-01T23:53:46.677Z,54.58
2022-11-01T23:56:16.669Z,54.49
2022-11-01T23:58:46.328Z,54.33
